createdAt,value
2022-12-22T00:01:17.110Z,100180.41
2022-12-22T00:04:38.646Z,100180.88
2022-12-22T00:07:58.890Z,100184.06
2022-12-22T00:11:19.575Z,100180.88
2022-12-22T00:14:39.792Z,100180.31
2022-12-22T00:18:00.053Z,100171.38
2022-12-22T00:21:21.793Z,100171.78
2022-12-22T00:24:42.196Z,100170.06
2022-12-22T00:28:02.374Z,100172.09
2022-12-22T00:31:22.776Z,100163.97
2022-12-22T00:34:43.117Z,100160.97
2022-12-22T00:38:04.555Z,100156.53
2022-12-22T00:41:25.524Z,100155.78
2022-12-22T00:44:45.827Z,100151.63
2022-12-22T00:48:05.986Z,100142.81
2022-12-22T00:51:26.785Z,100139.38
2022-12-22T00:54:48.228Z,100138.22
2022-12-22T00:58:08.531Z,100132.16
2022-12-22T01:01:29.499Z,100133.00
2022-12-22T01:04:49.689Z,100128.50
2022-12-22T01:08:09.945Z,100130.47
2022-12-22T01:11:31.523Z,100117.38
2022-12-22T01:14:51.805Z,100123.34
2022-12-22T01:18:12.150Z,100126.00
2022-12-22T01:21:39.905Z,100121.31
2022-12-22T01:25:00.198Z,100117.31
2022-12-22T01:28:22.789Z,100106.13
2022-12-22T01:31:49.512Z,100101.13
2022-12-22T01:35:09.685Z,100104.63
2022-12-22T01:38:29.927Z,100099.22
2022-12-22T01:41:50.102Z,100093.78
2022-12-22T01:45:11.615Z,100090.25
2022-12-22T01:48:33.879Z,100087.72
2022-12-22T01:51:54.228Z,100076.22
2022-12-22T01:55:16.402Z,100073.41
2022-12-22T01:58:42.774Z,100080.91
2022-12-22T02:02:04.411Z,100078.47
2022-12-22T02:05:28.610Z,100067.97
2022-12-22T02:08:54.540Z,100072.44
2022-12-22T02:12:23.484Z,100072.41
2022-12-22T02:15:51.301Z,100070.94
2022-12-22T02:19:18.947Z,100066.28
2022-12-22T02:22:46.760Z,100064.47
2022-12-22T02:26:13.034Z,100058.72
2022-12-22T02:29:38.356Z,100041.59
2022-12-22T02:33:09.251Z,100045.34
2022-12-22T02:36:37.139Z,100051.50
2022-12-22T02:40:07.444Z,100040.03
2022-12-22T02:43:36.727Z,100037.81
2022-12-22T02:47:04.594Z,100033.66
2022-12-22T02:50:35.327Z,100031.53
2022-12-22T02:53:57.609Z,100036.66
2022-12-22T02:57:20.489Z,100038.94
2022-12-22T03:00:40.767Z,100026.56
2022-12-22T03:04:02.486Z,100021.50
2022-12-22T03:07:22.683Z,100016.44
2022-12-22T03:10:42.968Z,100014.59
2022-12-22T03:14:03.215Z,100007.38
2022-12-22T03:17:23.440Z,100012.50
2022-12-22T03:20:45.257Z,100006.63
2022-12-22T03:24:05.513Z,99999.50
2022-12-22T03:27:08.133Z,99990.94
2022-12-22T03:30:11.267Z,99991.78
2022-12-22T03:33:13.885Z,99987.00
2022-12-22T03:36:17.868Z,99982.16
2022-12-22T03:39:20.508Z,99977.06
2022-12-22T03:42:40.860Z,99978.00
2022-12-22T03:46:01.187Z,99972.84
2022-12-22T03:49:11.394Z,99971.78
2022-12-22T03:52:15.340Z,99965.22
2022-12-22T03:55:17.931Z,99961.66
2022-12-22T03:58:20.509Z,99962.91
2022-12-22T04:01:23.149Z,99957.50
2022-12-22T04:04:27.572Z,99963.50
2022-12-22T04:07:31.582Z,99955.34
2022-12-22T04:10:51.523Z,99958.41
2022-12-22T04:13:54.128Z,99955.72
2022-12-22T04:16:56.791Z,99943.28
2022-12-22T04:19:59.381Z,99948.06
2022-12-22T04:23:04.300Z,99941.56
2022-12-22T04:26:06.902Z,99935.28
2022-12-22T04:29:09.514Z,99920.03
2022-12-22T04:32:12.180Z,99924.06
2022-12-22T04:35:14.822Z,99922.09
2022-12-22T04:38:18.840Z,99920.31
2022-12-22T04:41:21.429Z,99917.66
2022-12-22T04:44:24.024Z,99912.31
2022-12-22T04:47:26.609Z,99904.59
2022-12-22T04:50:29.215Z,99909.81
2022-12-22T04:53:33.402Z,99909.13
2022-12-22T04:56:36.034Z,99895.72
2022-12-22T04:59:38.688Z,99889.59
2022-12-22T05:02:41.457Z,99890.44
2022-12-22T05:05:44.167Z,99879.72
2022-12-22T05:08:48.135Z,99882.28
2022-12-22T05:11:50.766Z,99877.84
2022-12-22T05:14:53.631Z,99877.00
2022-12-22T05:17:57.325Z,99865.66
2022-12-22T05:20:59.911Z,99867.88
2022-12-22T05:24:04.012Z,99867.53
2022-12-22T05:27:07.020Z,99865.25
2022-12-22T05:30:10.622Z,99861.84
2022-12-22T05:33:13.188Z,99855.38
2022-12-22T05:36:16.203Z,99853.78
2022-12-22T05:39:20.277Z,99857.72
2022-12-22T05:42:36.595Z,99857.06
2022-12-22T05:45:39.230Z,99848.84
2022-12-22T05:48:41.826Z,99856.72
2022-12-22T05:51:44.449Z,99851.44
2022-12-22T05:54:48.362Z,99846.34
2022-12-22T05:57:50.995Z,99838.00
2022-12-22T06:00:57.424Z,99847.56
2022-12-22T06:04:00.777Z,99840.97
2022-12-22T06:07:03.621Z,99845.25
2022-12-22T06:10:12.392Z,99843.69
2022-12-22T06:13:15.943Z,99839.97
2022-12-22T06:16:18.584Z,99841.69
2022-12-22T06:19:21.214Z,99838.09
2022-12-22T06:22:23.799Z,99838.88
2022-12-22T06:25:27.769Z,99831.88
2022-12-22T06:28:30.650Z,99818.41
2022-12-22T06:31:33.310Z,99830.03
2022-12-22T06:34:35.921Z,99832.31
2022-12-22T06:37:38.674Z,99830.31
2022-12-22T06:40:42.593Z,99843.47
2022-12-22T06:43:44.205Z,99823.81
2022-12-22T06:46:46.858Z,99831.88
2022-12-22T06:49:49.619Z,99829.22
2022-12-22T06:52:52.338Z,99823.94
2022-12-22T06:55:56.259Z,99827.16
2022-12-22T06:58:58.871Z,99824.66
2022-12-22T07:02:01.538Z,99828.16
2022-12-22T07:05:04.442Z,99835.22
2022-12-22T07:08:09.016Z,99833.75
2022-12-22T07:11:13.213Z,99842.44
2022-12-22T07:14:15.840Z,99831.66
2022-12-22T07:17:18.432Z,99823.50
2022-12-22T07:20:20.997Z,99817.34
2022-12-22T07:23:23.668Z,99824.22
2022-12-22T07:26:27.932Z,99829.56
2022-12-22T07:29:30.573Z,99830.34
2022-12-22T07:32:33.170Z,99832.81
2022-12-22T07:35:35.834Z,99825.84
2022-12-22T07:38:41.052Z,99822.09
2022-12-22T07:42:03.168Z,99820.41
2022-12-22T07:45:06.657Z,99809.88
2022-12-22T07:48:24.187Z,99813.38
2022-12-22T07:51:26.792Z,99818.66
2022-12-22T07:54:30.588Z,99818.66
2022-12-22T07:57:35.825Z,99825.53
2022-12-22T08:00:38.402Z,99822.88
2022-12-22T08:03:40.974Z,99823.91
2022-12-22T08:06:43.692Z,99827.22
2022-12-22T08:09:46.276Z,99826.28
2022-12-22T08:12:50.259Z,99830.72
2022-12-22T08:15:52.890Z,99828.16
2022-12-22T08:18:55.507Z,99830.66
2022-12-22T08:21:58.382Z,99832.38
2022-12-22T08:25:00.997Z,99822.44
2022-12-22T08:28:05.347Z,99822.44
2022-12-22T08:31:08.749Z,99819.69
2022-12-22T08:34:15.140Z,99824.59
2022-12-22T08:37:21.492Z,99832.03
2022-12-22T08:40:28.433Z,99825.06
2022-12-22T08:43:33.692Z,99825.44
2022-12-22T08:46:36.307Z,99827.09
2022-12-22T08:49:38.957Z,99826.91
2022-12-22T08:52:41.530Z,99814.63
2022-12-22T08:55:52.013Z,99822.25
2022-12-22T08:58:55.928Z,99823.50
2022-12-22T09:01:58.589Z,99828.78
2022-12-22T09:05:01.418Z,99829.41
2022-12-22T09:08:04.169Z,99833.16
2022-12-22T09:11:06.964Z,99831.56
2022-12-22T09:14:11.829Z,99836.50
2022-12-22T09:17:14.401Z,99836.69
2022-12-22T09:20:17.247Z,99831.09
2022-12-22T09:23:19.853Z,99830.03
2022-12-22T09:26:24.162Z,99830.47
2022-12-22T09:29:28.119Z,99832.28
2022-12-22T09:32:30.696Z,99824.66
2022-12-22T09:35:33.300Z,99830.78
2022-12-22T09:38:35.921Z,99831.50
2022-12-22T09:41:45.442Z,99830.13
2022-12-22T09:44:51.786Z,99814.69
2022-12-22T09:47:56.185Z,99818.06
2022-12-22T09:50:59.191Z,99822.78
2022-12-22T09:54:03.056Z,99824.75
2022-12-22T09:57:12.481Z,99829.81
2022-12-22T10:00:20.147Z,99837.25
2022-12-22T10:03:34.358Z,99827.41
2022-12-22T10:06:43.462Z,99831.19
2022-12-22T10:09:51.268Z,99835.16
2022-12-22T10:12:56.840Z,99837.50
2022-12-22T10:16:00.938Z,99839.38
2022-12-22T10:19:11.770Z,99838.75
2022-12-22T10:22:26.414Z,99832.84
2022-12-22T10:25:52.535Z,99831.75
2022-12-22T10:29:00.619Z,99827.09
2022-12-22T10:32:12.242Z,99839.28
2022-12-22T10:35:14.934Z,99843.09
2022-12-22T10:38:22.601Z,99829.34
2022-12-22T10:41:28.307Z,99842.47
2022-12-22T10:44:33.999Z,99846.38
2022-12-22T10:47:38.003Z,99843.09
2022-12-22T10:50:46.314Z,99849.22
2022-12-22T10:53:52.657Z,99845.13
2022-12-22T10:57:04.314Z,99847.94
2022-12-22T11:00:24.157Z,99857.56
2022-12-22T11:03:32.095Z,99858.97
2022-12-22T11:06:34.907Z,99852.53
2022-12-22T11:09:37.512Z,99855.72
2022-12-22T11:12:55.604Z,99860.38
2022-12-22T11:16:04.033Z,99856.19
2022-12-22T11:19:25.598Z,99852.78
2022-12-22T11:22:38.413Z,99838.28
2022-12-22T11:25:52.435Z,99839.69
2022-12-22T11:29:15.912Z,99847.25
2022-12-22T11:32:35.526Z,99854.19
2022-12-22T11:35:51.560Z,99842.69
2022-12-22T11:38:59.697Z,99847.00
2022-12-22T11:42:15.363Z,99840.53
2022-12-22T11:45:39.127Z,99850.81
2022-12-22T11:48:59.900Z,99845.94
2022-12-22T11:52:14.573Z,99850.41
2022-12-22T11:55:30.863Z,99848.72
2022-12-22T11:58:49.699Z,99855.03
2022-12-22T12:02:14.461Z,99861.72
2022-12-22T12:05:35.517Z,99864.28
2022-12-22T12:08:56.267Z,99868.00
2022-12-22T12:12:06.324Z,99865.13
2022-12-22T12:15:21.914Z,99859.13
2022-12-22T12:18:47.598Z,99862.31
2022-12-22T12:21:53.531Z,99867.97
2022-12-22T12:25:03.215Z,99869.88
2022-12-22T12:28:19.464Z,99881.09
2022-12-22T12:31:26.786Z,99883.91
2022-12-22T12:34:33.412Z,99876.75
2022-12-22T12:37:39.059Z,99882.50
2022-12-22T12:40:51.573Z,99896.59
2022-12-22T12:43:55.941Z,99889.47
2022-12-22T12:47:22.922Z,99893.06
2022-12-22T12:50:33.718Z,99888.28
2022-12-22T12:53:36.306Z,99906.94
2022-12-22T12:57:23.974Z,99902.63
2022-12-22T13:00:49.833Z,99903.25
2022-12-22T13:04:03.184Z,99910.28
2022-12-22T13:07:06.652Z,99908.22
2022-12-22T13:10:19.813Z,99916.22
2022-12-22T13:13:47.293Z,99926.53
2022-12-22T13:16:49.968Z,99922.84
2022-12-22T13:19:52.784Z,99922.75
2022-12-22T13:22:57.682Z,99931.88
2022-12-22T13:26:03.648Z,99931.03
2022-12-22T13:29:19.542Z,99933.75
2022-12-22T13:32:26.424Z,99942.88
2022-12-22T13:35:38.701Z,99946.22
2022-12-22T13:38:45.495Z,99950.19
2022-12-22T13:41:51.012Z,99948.41
2022-12-22T13:44:55.749Z,99949.66
2022-12-22T13:48:00.718Z,99950.28
2022-12-22T13:51:06.408Z,99939.69
2022-12-22T13:54:17.703Z,99949.78
2022-12-22T13:57:22.976Z,99944.56
2022-12-22T14:00:29.844Z,99938.50
2022-12-22T14:03:59.099Z,99939.69
2022-12-22T14:06:55.889Z,99940.63
2022-12-22T14:09:59.085Z,99947.28
2022-12-22T14:13:07.436Z,99959.69
2022-12-22T14:16:15.055Z,99967.78
2022-12-22T14:19:19.415Z,99971.13
2022-12-22T14:22:25.399Z,99974.41
2022-12-22T14:25:33.212Z,99961.38
2022-12-22T14:28:43.473Z,99964.69
2022-12-22T14:31:55.181Z,99977.88
2022-12-22T14:34:57.908Z,99973.91
2022-12-22T14:38:20.129Z,99979.47
2022-12-22T14:41:46.648Z,99990.56
2022-12-22T14:44:50.035Z,99991.38
2022-12-22T14:47:55.454Z,99988.50
2022-12-22T14:50:58.416Z,99990.66
2022-12-22T14:54:03.394Z,99996.50
2022-12-22T14:57:15.700Z,100000.75
2022-12-22T15:00:31.259Z,99987.94
2022-12-22T15:03:37.753Z,99990.88
2022-12-22T15:06:42.530Z,99988.22
2022-12-22T15:10:14.305Z,99996.06
2022-12-22T15:13:13.213Z,100004.91
2022-12-22T15:16:18.883Z,100000.38
2022-12-22T15:19:23.409Z,100005.38
2022-12-22T15:22:26.137Z,100014.66
2022-12-22T15:25:28.803Z,100009.53
2022-12-22T15:28:31.379Z,100013.31
2022-12-22T15:31:34.644Z,100016.22
2022-12-22T15:34:38.774Z,100030.97
2022-12-22T15:37:41.368Z,100036.16
2022-12-22T15:40:44.342Z,100038.28
2022-12-22T15:43:57.899Z,100043.31
2022-12-22T15:47:01.168Z,100046.00
2022-12-22T15:50:06.189Z,100053.06
2022-12-22T15:53:13.437Z,100057.31
2022-12-22T15:56:21.157Z,100049.66
2022-12-22T15:59:26.998Z,100054.06
2022-12-22T16:02:29.803Z,100056.31
2022-12-22T16:05:34.810Z,100054.59
2022-12-22T16:08:39.384Z,100056.88
2022-12-22T16:11:41.976Z,100059.38
2022-12-22T16:14:50.583Z,100060.28
2022-12-22T16:17:53.653Z,100058.34
2022-12-22T16:21:04.527Z,100063.63
2022-12-22T16:24:08.319Z,100062.28
2022-12-22T16:27:12.297Z,100066.53
2022-12-22T16:30:19.453Z,100067.06
2022-12-22T16:33:22.076Z,100068.75
2022-12-22T16:36:25.999Z,100064.44
2022-12-22T16:39:28.596Z,100060.06
2022-12-22T16:45:52.308Z,100065.03
2022-12-22T16:48:57.948Z,100058.53
2022-12-22T16:52:01.926Z,100059.03
2022-12-22T16:55:07.370Z,100056.81
2022-12-22T16:58:13.804Z,100059.47
2022-12-22T17:01:23.594Z,100059.72
2022-12-22T17:04:30.331Z,100067.22
2022-12-22T17:07:34.572Z,100057.63
2022-12-22T17:10:37.239Z,100066.88
2022-12-22T17:13:40.160Z,100063.16
2022-12-22T17:16:42.753Z,100062.00
2022-12-22T17:19:45.597Z,100068.34
2022-12-22T17:22:53.664Z,100060.25
2022-12-22T17:25:56.300Z,100061.59
2022-12-22T17:29:00.220Z,100059.16
2022-12-22T17:32:02.841Z,100059.56
2022-12-22T17:35:06.009Z,100056.03
2022-12-22T17:38:14.054Z,100047.47
2022-12-22T17:41:17.956Z,100049.66
2022-12-22T17:44:22.570Z,100049.34
2022-12-22T17:47:32.183Z,100042.59
2022-12-22T17:50:35.643Z,100037.50
2022-12-22T17:53:41.263Z,100041.25
2022-12-22T17:56:43.919Z,100038.69
2022-12-22T17:59:46.595Z,100032.03
2022-12-22T18:02:49.843Z,100029.06
2022-12-22T18:05:52.644Z,100031.84
2022-12-22T18:08:57.937Z,100030.97
2022-12-22T18:12:00.522Z,100024.78
2022-12-22T18:15:03.108Z,100026.59
2022-12-22T18:18:13.095Z,100020.81
2022-12-22T18:21:17.501Z,100024.78
2022-12-22T18:24:21.505Z,100026.09
2022-12-22T18:27:24.297Z,100031.19
2022-12-22T18:30:29.091Z,100028.66
2022-12-22T18:33:31.689Z,100022.34
2022-12-22T18:36:34.800Z,100026.25
2022-12-22T18:39:39.981Z,100035.09
2022-12-22T18:42:42.547Z,100025.16
2022-12-22T18:45:45.358Z,100029.75
2022-12-22T18:48:48.383Z,100027.78
2022-12-22T18:51:51.057Z,100022.50
2022-12-22T18:54:55.049Z,100024.78
2022-12-22T18:57:59.345Z,100024.38
2022-12-22T19:01:03.649Z,100020.22
2022-12-22T19:04:06.519Z,100015.78
2022-12-22T19:07:13.244Z,100021.41
2022-12-22T19:10:19.798Z,100025.72
2022-12-22T19:13:29.135Z,100018.28
2022-12-22T19:16:31.856Z,100020.41
2022-12-22T19:19:34.523Z,100018.31
2022-12-22T19:22:37.085Z,100018.91
2022-12-22T19:25:42.495Z,100009.13
2022-12-22T19:28:45.629Z,100006.50
2022-12-22T19:31:48.341Z,100012.88
2022-12-22T19:34:51.263Z,100013.13
2022-12-22T19:37:54.493Z,100009.13
2022-12-22T19:41:02.481Z,100006.72
2022-12-22T19:44:06.036Z,100006.00
2022-12-22T19:47:17.735Z,99999.03
2022-12-22T19:50:23.255Z,99993.72
2022-12-22T19:53:26.527Z,99990.06
2022-12-22T19:56:30.886Z,99987.97
2022-12-22T19:59:39.325Z,99983.69
2022-12-22T20:02:43.074Z,99989.75
2022-12-22T20:05:45.762Z,99986.47
2022-12-22T20:08:48.372Z,99981.06
2022-12-22T20:11:52.357Z,99976.19
2022-12-22T20:14:55.246Z,99986.22
2022-12-22T20:17:58.781Z,99982.66
2022-12-22T20:21:03.660Z,99979.75
2022-12-22T20:24:07.647Z,99997.28
2022-12-22T20:27:18.591Z,100005.88
2022-12-22T20:30:24.333Z,99996.00
2022-12-22T20:33:28.287Z,100000.09
2022-12-22T20:36:32.412Z,99999.69
2022-12-22T20:39:34.976Z,100004.06
2022-12-22T20:42:38.951Z,100014.41
2022-12-22T20:45:42.506Z,100004.72
2022-12-22T20:48:47.931Z,100002.28
2022-12-22T20:51:50.520Z,100002.34
2022-12-22T20:54:53.195Z,99988.75
2022-12-22T20:57:57.118Z,99994.03
2022-12-22T21:01:02.439Z,99998.47
2022-12-22T21:04:05.068Z,99997.28
2022-12-22T21:07:07.782Z,99988.22
2022-12-22T21:10:17.195Z,99985.44
2022-12-22T21:13:21.950Z,99983.44
2022-12-22T21:16:27.740Z,99985.59
2022-12-22T21:19:30.525Z,99983.47
2022-12-22T21:22:33.168Z,99979.56
2022-12-22T21:25:35.863Z,99969.19
2022-12-22T21:28:40.074Z,99965.31
2022-12-22T21:31:42.704Z,99964.47
2022-12-22T21:34:45.289Z,99968.66
2022-12-22T21:37:50.103Z,99964.00
2022-12-22T21:40:52.794Z,99962.28
2022-12-22T21:43:56.729Z,99966.22
2022-12-22T21:47:00.085Z,99958.56
2022-12-22T21:50:04.885Z,99958.25
2022-12-22T21:53:07.865Z,99962.97
2022-12-22T21:56:18.612Z,99966.69
2022-12-22T21:59:23.018Z,99960.16
2022-12-22T22:02:25.752Z,99963.66
2022-12-22T22:05:35.250Z,99953.94
2022-12-22T22:08:37.957Z,99961.00
2022-12-22T22:11:55.301Z,99956.78
2022-12-22T22:15:00.749Z,99953.28
2022-12-22T22:18:07.224Z,99953.09
2022-12-22T22:21:11.643Z,99951.72
2022-12-22T22:24:14.392Z,99955.13
2022-12-22T22:27:16.969Z,99950.97
2022-12-22T22:30:22.734Z,99942.59
2022-12-22T22:33:25.635Z,99936.31
2022-12-22T22:36:28.315Z,99922.59
2022-12-22T22:39:30.893Z,99920.72
2022-12-22T22:42:33.533Z,99915.44
2022-12-22T22:45:40.760Z,99902.66
2022-12-22T22:48:43.351Z,99901.84
2022-12-22T22:51:48.206Z,99907.56
2022-12-22T22:54:50.874Z,99910.38
2022-12-22T22:57:54.139Z,99899.22
2022-12-22T23:01:05.128Z,99897.63
2022-12-22T23:04:08.487Z,99899.34
2022-12-22T23:07:11.763Z,99902.66
2022-12-22T23:10:14.599Z,99904.88
2022-12-22T23:13:17.190Z,99900.16
2022-12-22T23:16:21.860Z,99897.53
2022-12-22T23:19:24.847Z,99897.63
2022-12-22T23:22:27.429Z,99896.66
2022-12-22T23:25:30.014Z,99898.50
2022-12-22T23:28:32.837Z,99896.00
2022-12-22T23:31:37.486Z,99883.84
2022-12-22T23:34:40.151Z,99876.94
2022-12-22T23:37:42.829Z,99878.50
2022-12-22T23:40:54.349Z,99880.22
2022-12-22T23:43:57.524Z,99874.97
2022-12-22T23:47:01.499Z,99882.91
2022-12-22T23:50:04.509Z,99887.88
2022-12-22T23:53:07.125Z,99882.00
2022-12-22T23:56:09.736Z,99870.38
2022-12-22T23:59:12.304Z,99871.38
